createdAt,value
2022-09-28T00:00:56.020Z,7.94
2022-09-28T00:03:28.428Z,8.01
2022-09-28T00:05:59.917Z,7.97
2022-09-28T00:08:31.782Z,7.93
2022-09-28T00:11:03.284Z,7.83
2022-09-28T00:13:35.530Z,7.80
2022-09-28T00:16:07.169Z,7.77
2022-09-28T00:18:39.035Z,7.80
2022-09-28T00:21:12.255Z,7.81
2022-09-28T00:24:03.231Z,7.85
2022-09-28T00:26:34.770Z,7.81
2022-09-28T00:29:06.647Z,7.87
2022-09-28T00:31:38.238Z,7.90
2022-09-28T00:34:10.156Z,7.95
2022-09-28T00:36:41.647Z,7.98
2022-09-28T00:39:14.228Z,7.88
2022-09-28T00:41:45.770Z,7.93
2022-09-28T00:44:17.724Z,7.94
2022-09-28T00:46:49.215Z,8.02
2022-09-28T00:49:21.139Z,8.08
2022-09-28T00:51:52.618Z,8.05
2022-09-28T00:54:24.464Z,8.12
2022-09-28T00:56:56.595Z,8.13
2022-09-28T00:59:28.146Z,8.06
2022-09-28T01:01:59.744Z,8.01
2022-09-28T01:04:31.286Z,8.01
2022-09-28T01:07:03.115Z,8.03
2022-09-28T01:09:34.611Z,8.05
2022-09-28T01:12:06.453Z,8.13
2022-09-28T01:14:37.931Z,8.13
2022-09-28T01:17:09.866Z,8.20
2022-09-28T01:19:41.378Z,8.16
2022-09-28T01:22:13.168Z,8.16
2022-09-28T01:24:44.662Z,8.15
2022-09-28T01:27:16.655Z,8.20
2022-09-28T01:29:48.232Z,8.15
2022-09-28T01:32:19.809Z,8.18
2022-09-28T01:34:51.319Z,8.17
2022-09-28T01:37:23.201Z,8.14
2022-09-28T01:39:54.696Z,8.14
2022-09-28T01:42:26.523Z,8.14
2022-09-28T01:44:58.080Z,8.12
2022-09-28T01:47:29.959Z,8.11
2022-09-28T01:50:01.496Z,8.05
2022-09-28T01:52:33.334Z,6.40
2022-09-28T01:55:04.823Z,8.06
2022-09-28T01:57:36.790Z,8.02
2022-09-28T02:00:08.327Z,8.06
2022-09-28T02:02:40.140Z,7.99
2022-09-28T02:05:11.637Z,7.94
2022-09-28T02:07:43.734Z,7.97
2022-09-28T02:10:15.967Z,7.97
2022-09-28T02:12:47.840Z,8.04
2022-09-28T02:15:19.378Z,8.00
2022-09-28T02:17:51.222Z,8.06
2022-09-28T02:20:22.745Z,8.09
2022-09-28T02:22:54.715Z,8.05
2022-09-28T02:25:26.527Z,8.07
2022-09-28T02:27:58.077Z,8.00
2022-09-28T02:30:29.578Z,8.02
2022-09-28T02:33:01.055Z,8.02
2022-09-28T02:35:35.652Z,7.96
2022-09-28T02:38:07.137Z,7.92
2022-09-28T02:40:39.039Z,7.89
2022-09-28T02:43:10.543Z,7.85
2022-09-28T02:45:42.412Z,7.83
2022-09-28T02:48:13.953Z,7.76
2022-09-28T02:50:46.047Z,7.76
2022-09-28T02:53:17.602Z,7.78
2022-09-28T02:55:49.139Z,7.79
2022-09-28T02:58:20.673Z,7.83
2022-09-28T03:00:52.537Z,7.82
2022-09-28T03:03:24.097Z,7.81
2022-09-28T03:05:55.692Z,7.83
2022-09-28T03:08:27.232Z,7.77
2022-09-28T03:10:59.263Z,7.78
2022-09-28T03:13:30.755Z,7.80
2022-09-28T03:16:02.714Z,7.78
2022-09-28T03:18:34.241Z,7.72
2022-09-28T03:21:07.471Z,7.67
2022-09-28T03:23:39.051Z,7.63
2022-09-28T03:26:10.863Z,7.56
2022-09-28T03:28:42.359Z,7.52
2022-09-28T03:31:14.409Z,7.49
2022-09-28T03:33:46.009Z,7.45
2022-09-28T03:36:17.941Z,7.36
2022-09-28T03:38:49.422Z,7.29
2022-09-28T03:41:21.146Z,7.26
2022-09-28T03:43:52.943Z,7.23
2022-09-28T03:46:24.516Z,7.16
2022-09-28T03:48:56.521Z,7.11
2022-09-28T03:51:28.010Z,7.08
2022-09-28T03:54:00.014Z,7.04
2022-09-28T03:56:31.528Z,6.99
2022-09-28T03:59:03.451Z,6.96
2022-09-28T04:01:35.005Z,6.96
2022-09-28T04:04:06.806Z,6.92
2022-09-28T04:06:38.305Z,6.84
2022-09-28T04:09:10.379Z,6.85
2022-09-28T04:12:02.380Z,6.84
2022-09-28T04:14:33.827Z,6.84
2022-09-28T04:17:07.187Z,6.84
2022-09-28T04:19:38.717Z,6.87
2022-09-28T04:22:10.305Z,6.94
2022-09-28T04:24:43.800Z,6.96
2022-09-28T04:27:34.223Z,7.04
2022-09-28T04:30:06.194Z,7.04
2022-09-28T04:32:37.717Z,7.11
2022-09-28T04:35:09.543Z,7.16
2022-09-28T04:37:41.090Z,7.16
2022-09-28T04:40:13.001Z,7.23
2022-09-28T04:42:44.486Z,7.21
2022-09-28T04:45:16.424Z,7.21
2022-09-28T04:47:47.923Z,7.24
2022-09-28T04:50:19.763Z,7.26
2022-09-28T04:52:51.269Z,7.28
2022-09-28T04:55:22.873Z,7.28
2022-09-28T04:57:54.419Z,7.29
2022-09-28T05:00:26.211Z,7.38
2022-09-28T05:02:57.705Z,7.36
2022-09-28T05:05:29.505Z,7.34
2022-09-28T05:08:01.070Z,7.33
2022-09-28T05:10:33.005Z,7.36
2022-09-28T05:13:04.641Z,7.44
2022-09-28T05:15:36.335Z,7.45
2022-09-28T05:18:07.903Z,7.41
2022-09-28T05:20:39.736Z,7.45
2022-09-28T05:23:11.416Z,7.56
2022-09-28T05:25:43.180Z,7.61
2022-09-28T05:28:14.725Z,7.63
2022-09-28T05:30:46.566Z,7.72
2022-09-28T05:33:18.071Z,7.68
2022-09-28T05:35:53.835Z,7.72
2022-09-28T05:38:27.048Z,7.81
2022-09-28T05:41:00.342Z,7.93
2022-09-28T05:43:33.811Z,7.96
2022-09-28T05:46:05.369Z,8.01
2022-09-28T05:48:37.425Z,8.10
2022-09-28T05:51:10.128Z,8.16
2022-09-28T05:53:41.967Z,8.28
2022-09-28T05:56:13.456Z,8.41
2022-09-28T05:58:44.981Z,8.47
2022-09-28T06:01:16.644Z,8.48
2022-09-28T06:03:48.209Z,8.48
2022-09-28T06:06:19.746Z,8.58
2022-09-28T06:08:51.650Z,8.50
2022-09-28T06:11:27.579Z,8.42
2022-09-28T06:13:59.233Z,8.39
2022-09-28T06:16:30.978Z,8.41
2022-09-28T06:19:02.851Z,8.50
2022-09-28T06:21:34.345Z,8.62
2022-09-28T06:24:05.856Z,8.57
2022-09-28T06:26:37.413Z,8.59
2022-09-28T06:29:09.239Z,8.58
2022-09-28T06:31:40.801Z,8.58
2022-09-28T06:34:12.718Z,8.11
2022-09-28T06:36:44.212Z,8.87
2022-09-28T06:39:16.177Z,9.09
2022-09-28T06:41:47.726Z,9.07
2022-09-28T06:44:19.555Z,9.22
2022-09-28T06:46:51.535Z,9.47
2022-09-28T06:49:23.417Z,9.67
2022-09-28T06:51:55.057Z,9.93
2022-09-28T06:54:26.926Z,9.68
2022-09-28T06:56:58.422Z,9.70
2022-09-28T06:59:30.170Z,9.79
2022-09-28T07:02:01.797Z,9.87
2022-09-28T07:04:34.360Z,9.98
2022-09-28T07:07:06.552Z,10.14
2022-09-28T07:09:43.752Z,10.01
2022-09-28T07:12:18.067Z,10.08
2022-09-28T07:14:50.735Z,10.23
2022-09-28T07:17:23.074Z,10.34
2022-09-28T07:19:59.090Z,10.38
2022-09-28T07:22:42.453Z,10.58
2022-09-28T07:25:15.102Z,10.45
2022-09-28T07:27:47.469Z,10.49
2022-09-28T07:30:20.101Z,10.59
2022-09-28T07:32:52.090Z,10.76
2022-09-28T07:35:23.776Z,10.60
2022-09-28T07:37:55.583Z,10.75
2022-09-28T07:40:48.388Z,10.94
2022-09-28T07:43:23.360Z,11.04
2022-09-28T07:45:54.998Z,11.26
2022-09-28T07:48:26.886Z,11.28
2022-09-28T07:51:00.039Z,11.50
2022-09-28T07:53:31.892Z,11.44
2022-09-28T07:56:06.208Z,11.65
2022-09-28T07:58:38.073Z,11.75
2022-09-28T08:01:10.418Z,11.84
2022-09-28T08:03:45.549Z,12.33
2022-09-28T08:06:17.182Z,12.48
2022-09-28T08:08:49.611Z,12.78
2022-09-28T08:11:21.312Z,12.79
2022-09-28T08:13:55.902Z,12.99
2022-09-28T08:16:27.511Z,12.80
2022-09-28T08:18:59.404Z,13.11
2022-09-28T08:21:46.135Z,13.04
2022-09-28T08:24:18.384Z,13.26
2022-09-28T08:26:49.961Z,12.77
2022-09-28T08:29:21.834Z,13.02
2022-09-28T08:31:53.338Z,13.38
2022-09-28T08:34:25.327Z,13.93
2022-09-28T08:36:56.884Z,14.07
2022-09-28T08:39:28.471Z,13.21
2022-09-28T08:41:59.968Z,13.28
2022-09-28T08:44:31.810Z,13.82
2022-09-28T08:47:03.342Z,13.62
2022-09-28T08:49:36.464Z,13.87
2022-09-28T08:52:08.208Z,13.71
2022-09-28T08:54:40.244Z,13.82
2022-09-28T08:57:11.896Z,14.05
2022-09-28T08:59:43.695Z,14.37
2022-09-28T09:02:15.283Z,14.23
2022-09-28T09:04:47.279Z,14.95
2022-09-28T09:07:18.860Z,15.34
2022-09-28T09:09:50.395Z,15.74
2022-09-28T09:12:22.224Z,15.87
2022-09-28T09:14:53.754Z,15.86
2022-09-28T09:17:25.730Z,15.76
2022-09-28T09:19:57.488Z,16.63
2022-09-28T09:22:29.488Z,16.65
2022-09-28T09:25:01.029Z,16.49
2022-09-28T09:27:33.203Z,16.63
2022-09-28T09:30:04.722Z,16.92
2022-09-28T09:32:36.579Z,16.22
2022-09-28T09:35:19.530Z,16.33
2022-09-28T09:37:56.540Z,16.21
2022-09-28T09:40:30.490Z,16.04
2022-09-28T09:43:02.435Z,15.84
2022-09-28T09:45:34.000Z,16.44
2022-09-28T09:48:05.841Z,15.60
2022-09-28T09:50:39.427Z,15.93
2022-09-28T09:53:11.276Z,14.85
2022-09-28T09:55:43.235Z,14.23
2022-09-28T09:58:15.264Z,14.17
2022-09-28T10:00:46.774Z,14.49
2022-09-28T10:03:18.616Z,13.35
2022-09-28T10:05:50.103Z,13.67
2022-09-28T10:08:22.053Z,13.90
2022-09-28T10:10:53.549Z,14.57
2022-09-28T10:13:25.679Z,14.34
2022-09-28T10:15:57.208Z,14.12
2022-09-28T10:18:29.166Z,14.11
2022-09-28T10:21:00.696Z,13.81
2022-09-28T10:23:34.267Z,13.60
2022-09-28T10:26:05.755Z,13.57
2022-09-28T10:28:37.602Z,13.39
2022-09-28T10:31:10.157Z,12.66
2022-09-28T10:33:42.786Z,12.49
2022-09-28T10:36:15.873Z,12.69
2022-09-28T10:38:47.727Z,12.78
2022-09-28T10:41:19.232Z,12.41
2022-09-28T10:43:52.919Z,12.49
2022-09-28T10:46:26.513Z,12.28
2022-09-28T10:48:58.418Z,12.42
2022-09-28T10:51:29.971Z,12.13
2022-09-28T10:54:01.826Z,12.39
2022-09-28T10:56:33.326Z,12.52
2022-09-28T10:59:05.219Z,12.42
2022-09-28T11:01:37.173Z,12.15
2022-09-28T11:04:10.394Z,11.89
2022-09-28T11:06:42.289Z,11.23
2022-09-28T11:09:13.792Z,12.37
2022-09-28T11:11:46.372Z,12.32
2022-09-28T11:14:17.879Z,12.15
2022-09-28T11:16:49.463Z,11.85
2022-09-28T11:19:21.482Z,11.92
2022-09-28T11:21:52.989Z,11.73
2022-09-28T11:24:26.677Z,11.94
2022-09-28T11:26:59.968Z,10.75
2022-09-28T11:29:32.065Z,12.08
2022-09-28T11:32:04.169Z,12.21
2022-09-28T11:34:57.543Z,12.16
2022-09-28T11:37:27.938Z,12.31
2022-09-28T11:40:00.129Z,12.31
2022-09-28T11:42:31.658Z,11.99
2022-09-28T11:45:03.726Z,12.29
2022-09-28T11:47:35.214Z,12.22
2022-09-28T11:50:07.116Z,12.53
2022-09-28T11:52:38.689Z,12.49
2022-09-28T11:55:10.288Z,12.71
2022-09-28T11:57:41.823Z,12.62
2022-09-28T12:00:13.385Z,12.16
2022-09-28T12:02:45.397Z,12.06
2022-09-28T12:05:20.761Z,12.40
2022-09-28T12:07:52.709Z,12.43
2022-09-28T12:10:24.197Z,12.59
2022-09-28T12:12:55.717Z,12.69
2022-09-28T12:15:27.233Z,12.15
2022-09-28T12:17:58.836Z,12.10
2022-09-28T12:20:30.595Z,12.10
2022-09-28T12:23:02.655Z,12.36
2022-09-28T12:25:34.215Z,12.34
2022-09-28T12:28:06.112Z,12.42
2022-09-28T12:30:40.427Z,12.26
2022-09-28T12:33:12.274Z,12.14
2022-09-28T12:35:43.819Z,12.00
2022-09-28T12:38:15.626Z,12.14
2022-09-28T12:40:47.193Z,12.06
2022-09-28T12:43:20.339Z,12.39
2022-09-28T12:46:11.119Z,12.60
2022-09-28T12:48:43.718Z,12.17
2022-09-28T12:51:15.189Z,12.06
2022-09-28T12:53:47.032Z,11.97
2022-09-28T12:56:21.480Z,11.94
2022-09-28T12:58:59.799Z,12.35
2022-09-28T13:01:31.367Z,11.99
2022-09-28T13:04:03.243Z,12.12
2022-09-28T13:06:34.712Z,12.20
2022-09-28T13:09:06.486Z,11.83
2022-09-28T13:11:37.962Z,12.18
2022-09-28T13:14:10.392Z,12.16
2022-09-28T13:16:41.945Z,12.26
2022-09-28T13:19:13.797Z,12.18
2022-09-28T13:21:45.706Z,12.42
2022-09-28T13:24:31.715Z,12.37
2022-09-28T13:27:07.322Z,12.64
2022-09-28T13:32:12.900Z,12.32
2022-09-28T13:34:44.424Z,12.57
2022-09-28T13:37:20.304Z,12.47
2022-09-28T13:39:52.574Z,12.36
2022-09-28T13:42:24.444Z,12.69
2022-09-28T13:44:55.989Z,12.81
2022-09-28T13:47:27.677Z,12.77
2022-09-28T13:50:00.371Z,13.02
2022-09-28T13:52:31.891Z,12.94
2022-09-28T13:55:03.407Z,13.19
2022-09-28T13:57:35.369Z,13.45
2022-09-28T14:00:06.872Z,13.08
2022-09-28T14:02:38.901Z,13.39
2022-09-28T14:05:10.402Z,13.01
2022-09-28T14:07:42.224Z,13.12
2022-09-28T14:10:13.747Z,13.07
2022-09-28T14:12:45.715Z,12.94
2022-09-28T14:15:17.217Z,13.10
2022-09-28T14:17:50.388Z,13.23
2022-09-28T14:20:21.864Z,13.02
2022-09-28T14:22:54.984Z,13.25
2022-09-28T14:25:26.508Z,13.27
2022-09-28T14:27:58.289Z,13.13
2022-09-28T14:30:29.784Z,12.98
2022-09-28T14:33:03.214Z,12.87
2022-09-28T14:35:34.734Z,12.92
2022-09-28T14:38:25.180Z,12.83
2022-09-28T14:41:15.247Z,12.55
2022-09-28T14:43:46.785Z,12.51
2022-09-28T14:46:19.101Z,12.25
2022-09-28T14:48:50.825Z,12.22
2022-09-28T14:51:22.965Z,12.31
2022-09-28T14:53:54.652Z,12.34
2022-09-28T14:56:31.847Z,12.18
2022-09-28T14:59:04.140Z,12.01
2022-09-28T15:01:36.044Z,11.84
2022-09-28T15:04:07.537Z,11.75
2022-09-28T15:06:41.456Z,11.55
2022-09-28T15:09:12.912Z,11.33
2022-09-28T15:11:44.765Z,11.10
2022-09-28T15:14:16.582Z,11.03
2022-09-28T15:16:48.398Z,11.00
2022-09-28T15:19:20.920Z,10.97
2022-09-28T15:21:52.422Z,10.83
2022-09-28T15:24:23.902Z,10.81
2022-09-28T15:26:56.820Z,10.92
2022-09-28T15:29:31.248Z,10.88
2022-09-28T15:32:04.245Z,10.80
2022-09-28T15:34:58.430Z,10.75
2022-09-28T15:37:30.390Z,10.83
2022-09-28T15:40:01.890Z,10.88
2022-09-28T15:42:33.456Z,10.99
2022-09-28T15:45:07.740Z,11.14
2022-09-28T15:47:40.445Z,11.15
2022-09-28T15:52:57.759Z,11.30
2022-09-28T15:55:29.291Z,11.27
2022-09-28T15:58:00.800Z,11.15
2022-09-28T16:00:32.568Z,11.16
2022-09-28T16:03:05.434Z,11.14
2022-09-28T16:05:37.547Z,11.17
2022-09-28T16:08:09.003Z,11.08
2022-09-28T16:10:41.428Z,11.18
2022-09-28T16:13:15.458Z,11.08
2022-09-28T16:15:47.067Z,11.01
2022-09-28T16:18:20.079Z,10.96
2022-09-28T16:20:51.949Z,10.89
2022-09-28T16:23:24.041Z,10.85
2022-09-28T16:25:55.915Z,10.82
2022-09-28T16:28:29.550Z,10.72
2022-09-28T16:31:03.302Z,10.65
2022-09-28T16:33:35.176Z,10.59
2022-09-28T16:36:06.787Z,10.51
2022-09-28T16:38:38.801Z,10.45
2022-09-28T16:41:10.615Z,10.37
2022-09-28T16:43:42.082Z,10.32
2022-09-28T16:46:14.030Z,10.33
2022-09-28T16:48:48.877Z,10.25
2022-09-28T16:51:20.788Z,10.23
2022-09-28T16:54:11.653Z,10.20
2022-09-28T16:56:43.152Z,10.18
2022-09-28T16:59:15.114Z,10.15
2022-09-28T17:01:47.300Z,10.08
2022-09-28T17:04:19.353Z,10.04
2022-09-28T17:06:51.041Z,10.07
2022-09-28T17:09:22.868Z,10.05
2022-09-28T17:11:56.650Z,10.02
2022-09-28T17:14:28.791Z,10.00
2022-09-28T17:17:09.000Z,9.98
2022-09-28T17:19:42.414Z,9.92
2022-09-28T17:22:14.258Z,9.91
2022-09-28T17:24:46.445Z,9.93
2022-09-28T17:27:17.956Z,9.91
2022-09-28T17:29:49.755Z,9.87
2022-09-28T17:32:21.231Z,9.85
2022-09-28T17:35:06.451Z,9.81
2022-09-28T17:37:44.875Z,9.83
2022-09-28T17:40:16.472Z,9.79
2022-09-28T17:42:48.117Z,9.78
2022-09-28T17:45:20.050Z,9.74
2022-09-28T17:47:51.546Z,9.73
2022-09-28T17:50:23.042Z,9.69
2022-09-28T17:52:54.569Z,9.69
2022-09-28T17:55:30.384Z,9.71
2022-09-28T17:58:02.137Z,9.69
2022-09-28T18:00:34.541Z,9.70
2022-09-28T18:03:06.402Z,9.69
2022-09-28T18:05:37.933Z,9.72
2022-09-28T18:08:09.765Z,9.67
2022-09-28T18:10:41.268Z,9.64
2022-09-28T18:13:13.235Z,9.65
2022-09-28T18:15:44.814Z,9.62
2022-09-28T18:18:16.657Z,9.62
2022-09-28T18:23:21.536Z,9.60
2022-09-28T18:25:53.047Z,9.57
2022-09-28T18:28:24.739Z,9.57
2022-09-28T18:30:56.331Z,9.53
2022-09-28T18:36:17.208Z,9.53
2022-09-28T18:38:49.069Z,9.51
2022-09-28T18:41:20.574Z,9.49
2022-09-28T18:43:52.502Z,9.47
2022-09-28T18:46:27.747Z,9.44
2022-09-28T18:48:59.674Z,9.43
2022-09-28T18:51:31.237Z,9.42
2022-09-28T18:54:07.535Z,9.40
2022-09-28T18:56:39.052Z,9.30
2022-09-28T18:59:12.353Z,9.23
2022-09-28T19:01:44.112Z,9.23
2022-09-28T19:04:16.060Z,9.20
2022-09-28T19:06:51.731Z,9.20
2022-09-28T19:09:24.935Z,9.19
2022-09-28T19:11:56.720Z,8.69
2022-09-28T19:14:28.195Z,9.13
2022-09-28T19:17:00.161Z,9.09
2022-09-28T19:19:31.762Z,9.09
2022-09-28T19:22:03.582Z,9.05
2022-09-28T19:24:35.100Z,9.03
2022-09-28T19:27:06.946Z,8.99
2022-09-28T19:29:38.426Z,9.01
2022-09-28T19:32:12.605Z,9.00
2022-09-28T19:34:44.075Z,8.97
2022-09-28T19:37:15.926Z,8.94
2022-09-28T19:39:47.390Z,8.90
2022-09-28T19:42:18.935Z,8.84
2022-09-28T19:44:51.018Z,8.82
2022-09-28T19:47:22.800Z,8.76
2022-09-28T19:49:54.534Z,8.71
2022-09-28T19:52:26.088Z,8.66
2022-09-28T19:54:57.649Z,8.62
2022-09-28T19:57:29.269Z,8.55
2022-09-28T20:00:03.310Z,8.51
2022-09-28T20:02:35.586Z,8.42
2022-09-28T20:05:09.798Z,8.38
2022-09-28T20:07:41.479Z,8.34
2022-09-28T20:10:13.106Z,8.28
2022-09-28T20:12:44.958Z,8.25
2022-09-28T20:15:16.945Z,8.22
2022-09-28T20:17:48.998Z,8.20
2022-09-28T20:20:20.467Z,8.19
2022-09-28T20:22:52.725Z,8.22
2022-09-28T20:25:29.174Z,8.25
2022-09-28T20:28:00.945Z,8.31
2022-09-28T20:30:33.111Z,8.33
2022-09-28T20:33:04.770Z,8.37
2022-09-28T20:35:36.252Z,8.39
2022-09-28T20:38:08.059Z,8.34
2022-09-28T20:40:42.069Z,8.39
2022-09-28T20:43:15.452Z,8.35
2022-09-28T20:45:47.156Z,8.32
2022-09-28T20:48:19.993Z,8.31
2022-09-28T20:50:51.550Z,8.27
2022-09-28T20:53:23.796Z,8.32
2022-09-28T20:55:55.979Z,8.33
2022-09-28T20:58:27.818Z,8.34
2022-09-28T21:00:59.309Z,8.32
2022-09-28T21:03:31.414Z,8.37
2022-09-28T21:06:02.958Z,8.33
2022-09-28T21:08:34.768Z,8.34
2022-09-28T21:11:07.185Z,8.38
2022-09-28T21:13:41.868Z,8.38
2022-09-28T21:16:13.399Z,8.36
2022-09-28T21:18:45.352Z,8.39
2022-09-28T21:21:16.801Z,8.40
2022-09-28T21:23:48.644Z,8.42
2022-09-28T21:26:25.283Z,8.49
2022-09-28T21:28:56.752Z,8.45
2022-09-28T21:31:29.526Z,8.44
2022-09-28T21:34:01.173Z,8.42
2022-09-28T21:36:32.651Z,8.39
2022-09-28T21:39:09.545Z,8.41
2022-09-28T21:41:42.199Z,8.38
2022-09-28T21:44:13.661Z,8.39
2022-09-28T21:46:45.608Z,8.42
2022-09-28T21:49:17.177Z,8.42
2022-09-28T21:51:48.987Z,8.44
2022-09-28T21:54:21.341Z,8.46
2022-09-28T21:56:53.161Z,8.46
2022-09-28T21:59:24.980Z,8.49
2022-09-28T22:01:56.793Z,8.49
2022-09-28T22:04:28.324Z,8.48
2022-09-28T22:07:00.384Z,8.50
2022-09-28T22:09:31.922Z,8.50
2022-09-28T22:12:03.953Z,8.52
2022-09-28T22:14:35.434Z,8.53
2022-09-28T22:17:07.281Z,8.51
2022-09-28T22:19:38.801Z,8.49
2022-09-28T22:22:10.593Z,8.45
2022-09-28T22:24:42.086Z,8.40
2022-09-28T22:27:15.161Z,8.38
2022-09-28T22:29:46.631Z,8.38
2022-09-28T22:32:18.508Z,8.32
2022-09-28T22:34:50.016Z,8.32
2022-09-28T22:37:21.927Z,8.35
2022-09-28T22:39:53.993Z,8.37
2022-09-28T22:42:26.261Z,8.38
2022-09-28T22:44:57.742Z,8.32
2022-09-28T22:47:29.513Z,8.25
2022-09-28T22:50:00.979Z,8.24
2022-09-28T22:52:32.452Z,8.19
2022-09-28T22:55:03.932Z,8.15
2022-09-28T22:57:35.710Z,8.13
2022-09-28T23:00:07.224Z,8.08
2022-09-28T23:02:39.105Z,8.02
2022-09-28T23:05:10.674Z,7.96
2022-09-28T23:07:42.469Z,7.94
2022-09-28T23:10:13.949Z,7.86
2022-09-28T23:12:45.909Z,7.82
2022-09-28T23:15:17.370Z,7.78
2022-09-28T23:17:49.191Z,7.74
2022-09-28T23:20:20.644Z,7.68
2022-09-28T23:22:52.508Z,7.63
2022-09-28T23:25:24.004Z,7.57
2022-09-28T23:27:55.801Z,7.50
2022-09-28T23:30:27.342Z,7.47
2022-09-28T23:32:59.254Z,7.44
2022-09-28T23:35:30.723Z,7.40
2022-09-28T23:38:02.648Z,7.40
2022-09-28T23:40:34.260Z,7.38
2022-09-28T23:43:06.117Z,7.39
2022-09-28T23:45:37.661Z,7.38
2022-09-28T23:48:09.529Z,7.33
2022-09-28T23:50:40.993Z,7.32
2022-09-28T23:53:13.968Z,7.30
2022-09-28T23:55:45.438Z,7.28
2022-09-28T23:58:17.271Z,7.25
